Time,TemperatureF,DewpointF,PressureIn,WindDirection,WindDirectionDegrees,WindSpeedMPH,WindSpeedGustMPH,Humidity,HourlyPrecipIn,Conditions,Clouds,dailyrainin,SoftwareType,DateUTC
2013-03-11 00:01:00,32.4,19.3,30.33,WNW,296,0.0,0.0,58,0.00,,SKC,0.02,VWS V12.07,2013-03-11 06:01:00,
2013-03-11 00:30:00,34.0,20.0,30.27,WNW,296,0.0,0.0,56,0.00,,SKC,0.02,VWS V12.07,2013-03-11 06:30:00,
2013-03-11 01:00:00,34.6,19.7,30.27,WNW,296,0.0,0.0,54,0.00,,SKC,0.02,VWS V12.07,2013-03-11 07:00:00,
2013-03-11 01:30:00,33.4,20.2,30.24,WNW,296,0.0,0.0,58,0.00,,SKC,0.00,VWS V12.07,2013-03-11 07:30:00,
2013-03-11 02:01:00,34.0,20.8,30.23,WNW,296,0.0,0.0,58,0.00,,SKC,0.00,VWS V12.07,2013-03-11 08:01:00,
2013-03-11 02:30:00,33.8,19.8,30.24,WNW,296,0.0,0.0,56,0.00,,SKC,0.00,VWS V12.07,2013-03-11 08:30:00,
2013-03-11 03:00:00,31.6,19.3,30.24,WNW,296,0.0,0.0,60,0.00,,SKC,0.00,VWS V12.07,2013-03-11 09:00:00,
2013-03-11 03:30:00,30.9,19.0,30.25,WNW,296,0.0,0.0,61,0.00,,SKC,0.00,VWS V12.07,2013-03-11 09:30:00,
2013-03-11 04:01:00,31.3,19.0,30.22,WNW,296,0.0,0.0,60,0.00,,SKC,0.00,VWS V12.07,2013-03-11 10:01:00,
2013-03-11 04:30:00,30.9,19.0,30.23,WNW,296,0.0,0.0,61,0.00,,SKC,0.00,VWS V12.07,2013-03-11 10:30:00,
2013-03-11 05:00:00,29.5,18.1,30.23,WNW,296,0.0,0.0,62,0.00,,SKC,0.00,VWS V12.07,2013-03-11 11:00:00,
2013-03-11 05:30:00,30.4,18.6,30.23,WNW,296,0.0,0.0,61,0.00,,SKC,0.00,VWS V12.07,2013-03-11 11:30:00,
2013-03-11 06:00:00,31.2,18.5,30.22,WNW,296,0.0,0.0,59,0.00,,SKC,0.00,VWS V12.07,2013-03-11 12:00:00,
2013-03-11 06:30:00,32.9,18.5,30.21,WNW,296,0.0,0.0,55,0.00,,SKC,0.00,VWS V12.07,2013-03-11 12:30:00,
2013-03-11 07:01:00,31.8,18.3,30.23,WNW,296,0.0,0.0,57,0.00,,SKC,0.00,VWS V12.07,2013-03-11 13:01:00,
2013-03-11 07:30:00,31.3,18.6,30.28,WNW,296,0.0,0.0,59,0.00,,SKC,0.00,VWS V12.07,2013-03-11 13:30:00,
2013-03-11 08:01:00,30.1,19.0,30.28,WNW,296,0.0,0.0,63,0.00,,SKC,0.00,VWS V12.07,2013-03-11 14:01:00,
2013-03-11 08:30:00,30.0,19.3,30.29,WNW,296,0.0,0.0,64,0.00,,SKC,0.00,VWS V12.07,2013-03-11 14:30:00,
2013-03-11 09:00:00,30.3,20.0,30.30,WNW,296,0.0,0.0,65,0.00,,SKC,0.00,VWS V12.07,2013-03-11 15:00:00,
2013-03-11 09:30:00,34.1,21.3,30.28,WNW,296,0.0,0.0,59,0.00,,SKC,0.00,VWS V12.07,2013-03-11 15:30:00,
2013-03-11 10:00:00,35.9,21.3,30.27,WNW,296,0.0,0.0,55,0.00,,SKC,0.00,VWS V12.07,2013-03-11 16:00:00,
2013-03-11 10:30:00,37.2,21.7,30.24,NE,44,0.0,0.0,53,0.00,,SKC,0.00,VWS V12.07,2013-03-11 16:30:00,
2013-03-11 11:00:00,36.8,23.4,30.25,NE,47,0.0,1.0,58,0.00,,SKC,0.00,VWS V12.07,2013-03-11 17:00:00,
2013-03-11 11:30:00,39.2,23.5,30.25,ENE,61,0.0,1.0,53,0.00,,SKC,0.00,VWS V12.07,2013-03-11 17:30:00,
2013-03-11 12:01:00,37.8,24.8,30.25,ESE,107,0.0,4.0,59,0.00,,SKC,0.00,VWS V12.07,2013-03-11 18:01:00,
2013-03-11 12:30:00,40.2,24.0,30.23,East,84,0.0,3.0,52,0.00,,SKC,0.00,VWS V12.07,2013-03-11 18:30:00,
2013-03-11 13:00:00,40.5,24.3,30.23,East,85,3.0,3.0,52,0.00,,SKC,0.00,VWS V12.07,2013-03-11 19:00:00,
2013-03-11 13:30:00,42.8,21.9,30.21,West,263,0.0,0.0,43,0.00,,SKC,0.00,VWS V12.07,2013-03-11 19:30:00,
2013-03-11 14:01:00,46.0,21.8,30.17,NNW,329,0.0,1.0,38,0.00,,SKC,0.00,VWS V12.07,2013-03-11 20:01:00,
2013-03-11 14:30:00,46.5,22.3,30.17,NE,39,0.0,1.0,38,0.00,,SKC,0.00,VWS V12.07,2013-03-11 20:30:00,
2013-03-11 15:01:00,46.7,23.1,30.16,NE,36,0.0,1.0,39,0.00,,SKC,0.00,VWS V12.07,2013-03-11 21:01:00,
2013-03-11 15:30:00,46.5,24.1,30.16,NE,46,0.0,3.0,41,0.00,,SKC,0.00,VWS V12.07,2013-03-11 21:30:00,
2013-03-11 16:00:00,46.7,24.3,30.16,NE,51,0.0,3.0,41,0.00,,SKC,0.00,VWS V12.07,2013-03-11 22:00:00,
2013-03-11 16:30:00,48.5,22.1,30.15,NE,38,0.0,0.0,35,0.00,,SKC,0.00,VWS V12.07,2013-03-11 22:30:00,
2013-03-11 17:00:00,48.5,23.4,30.14,East,84,0.0,3.0,37,0.00,,SKC,0.00,VWS V12.07,2013-03-11 23:00:00,
2013-03-11 17:30:00,47.6,22.6,30.12,East,80,0.0,5.0,37,0.00,,SKC,0.00,VWS V12.07,2013-03-11 23:30:00,
2013-03-11 18:00:00,48.2,23.2,30.11,East,79,0.0,5.0,37,0.00,,SKC,0.00,VWS V12.07,2013-03-12 00:00:00,
2013-03-11 18:30:00,47.6,23.3,30.13,East,79,0.0,1.0,38,0.00,,SKC,0.00,VWS V12.07,2013-03-12 00:30:00,
2013-03-11 19:00:00,45.1,24.0,30.14,East,79,0.0,1.0,43,0.00,,SKC,0.00,VWS V12.07,2013-03-12 01:00:00,
2013-03-11 19:30:00,43.9,23.4,30.17,East,79,0.0,0.0,44,0.00,,SKC,0.00,VWS V12.07,2013-03-12 01:30:00,
2013-03-11 20:00:00,42.3,24.5,30.16,East,79,0.0,0.0,49,0.00,,SKC,0.00,VWS V12.07,2013-03-12 02:00:00,
2013-03-11 20:30:00,41.5,24.7,30.15,East,79,0.0,0.0,51,0.00,,SKC,0.00,VWS V12.07,2013-03-12 02:30:00,
2013-03-11 21:00:00,41.2,24.5,30.17,East,79,0.0,0.0,51,0.00,,SKC,0.00,VWS V12.07,2013-03-12 03:00:00,
2013-03-11 21:30:00,41.8,24.1,30.13,ENE,78,0.0,0.0,49,0.00,,SKC,0.00,VWS V12.07,2013-03-12 03:30:00,
2013-03-11 22:00:00,42.6,23.8,30.12,East,79,0.0,0.0,47,0.00,,SKC,0.00,VWS V12.07,2013-03-12 04:00:00,
2013-03-11 22:30:00,42.6,23.3,30.11,East,79,0.0,0.0,46,0.00,,SKC,0.00,VWS V12.07,2013-03-12 04:30:00,
2013-03-11 23:00:00,42.2,23.9,30.14,East,79,0.0,0.0,48,0.00,,SKC,0.00,VWS V12.07,2013-03-12 05:00:00,
2013-03-11 23:30:00,41.5,24.3,30.12,East,79,0.0,0.0,50,0.00,,SKC,0.00,VWS V12.07,2013-03-12 05:30:00,